sensor_id;sensor_type;location;lat;lon;timestamp;pressure;altitude;pressure_sealevel;temperature
61977;BMP280;45905;50.570;10.428;2022-07-06T00:01:27;98458.63;;;18.75
61977;BMP280;45905;50.570;10.428;2022-07-06T00:03:55;98467.88;;;18.70
61977;BMP280;45905;50.570;10.428;2022-07-06T00:06:23;98466.28;;;18.62
61977;BMP280;45905;50.570;10.428;2022-07-06T00:08:50;98476.91;;;18.59
61977;BMP280;45905;50.570;10.428;2022-07-06T00:11:18;98473.16;;;18.55
61977;BMP280;45905;50.570;10.428;2022-07-06T00:13:45;98473.91;;;18.50
61977;BMP280;45905;50.570;10.428;2022-07-06T00:16:12;98469.16;;;18.47
61977;BMP280;45905;50.570;10.428;2022-07-06T00:18:40;98464.16;;;18.39
61977;BMP280;45905;50.570;10.428;2022-07-06T00:21:07;98485.28;;;18.34
61977;BMP280;45905;50.570;10.428;2022-07-06T00:23:34;98488.38;;;18.30
61977;BMP280;45905;50.570;10.428;2022-07-06T00:26:02;98478.53;;;18.27
61977;BMP280;45905;50.570;10.428;2022-07-06T00:28:30;98479.69;;;18.25
61977;BMP280;45905;50.570;10.428;2022-07-06T00:30:57;98483.81;;;18.19
61977;BMP280;45905;50.570;10.428;2022-07-06T00:33:24;98482.59;;;18.15
61977;BMP280;45905;50.570;10.428;2022-07-06T00:35:51;98483.97;;;18.12
61977;BMP280;45905;50.570;10.428;2022-07-06T00:38:19;98484.69;;;18.06
61977;BMP280;45905;50.570;10.428;2022-07-06T00:40:47;98491.31;;;17.94
61977;BMP280;45905;50.570;10.428;2022-07-06T00:43:14;98488.34;;;17.91
61977;BMP280;45905;50.570;10.428;2022-07-06T00:45:41;98492.06;;;17.88
61977;BMP280;45905;50.570;10.428;2022-07-06T00:48:10;98486.91;;;17.88
61977;BMP280;45905;50.570;10.428;2022-07-06T00:50:39;98490.03;;;17.84
61977;BMP280;45905;50.570;10.428;2022-07-06T00:53:07;98489.59;;;17.80
61977;BMP280;45905;50.570;10.428;2022-07-06T00:55:38;98483.63;;;17.74
61977;BMP280;45905;50.570;10.428;2022-07-06T00:58:09;98485.59;;;17.72
61977;BMP280;45905;50.570;10.428;2022-07-06T01:00:36;98484.97;;;17.70
61977;BMP280;45905;50.570;10.428;2022-07-06T01:03:05;98481.38;;;17.64
61977;BMP280;45905;50.570;10.428;2022-07-06T01:05:32;98487.25;;;17.58
61977;BMP280;45905;50.570;10.428;2022-07-06T01:07:59;98480.72;;;17.56
61977;BMP280;45905;50.570;10.428;2022-07-06T01:10:27;98483.66;;;17.53
61977;BMP280;45905;50.570;10.428;2022-07-06T01:12:57;98470.44;;;17.50
61977;BMP280;45905;50.570;10.428;2022-07-06T01:15:25;98472.38;;;17.48
61977;BMP280;45905;50.570;10.428;2022-07-06T01:17:53;98463.84;;;17.41
61977;BMP280;45905;50.570;10.428;2022-07-06T01:20:28;98467.91;;;17.36
61977;BMP280;45905;50.570;10.428;2022-07-06T01:22:59;98467.69;;;17.31
61977;BMP280;45905;50.570;10.428;2022-07-06T01:25:27;98470.00;;;17.26
61977;BMP280;45905;50.570;10.428;2022-07-06T01:27:54;98463.06;;;17.20
61977;BMP280;45905;50.570;10.428;2022-07-06T01:30:21;98460.25;;;17.15
61977;BMP280;45905;50.570;10.428;2022-07-06T01:32:50;98469.63;;;17.08
61977;BMP280;45905;50.570;10.428;2022-07-06T01:35:17;98464.44;;;17.02
61977;BMP280;45905;50.570;10.428;2022-07-06T01:37:44;98474.22;;;16.99
61977;BMP280;45905;50.570;10.428;2022-07-06T01:40:13;98477.19;;;16.96
61977;BMP280;45905;50.570;10.428;2022-07-06T01:42:41;98481.03;;;16.92
61977;BMP280;45905;50.570;10.428;2022-07-06T01:45:09;98482.38;;;16.88
61977;BMP280;45905;50.570;10.428;2022-07-06T01:47:37;98479.31;;;16.78
61977;BMP280;45905;50.570;10.428;2022-07-06T01:50:08;98482.13;;;16.69
61977;BMP280;45905;50.570;10.428;2022-07-06T01:52:41;98487.97;;;16.63
61977;BMP280;45905;50.570;10.428;2022-07-06T01:55:09;98484.91;;;16.53
61977;BMP280;45905;50.570;10.428;2022-07-06T01:57:37;98487.97;;;16.49
61977;BMP280;45905;50.570;10.428;2022-07-06T02:00:07;98481.66;;;16.45
61977;BMP280;45905;50.570;10.428;2022-07-06T02:02:44;98491.25;;;16.43
61977;BMP280;45905;50.570;10.428;2022-07-06T02:05:11;98478.97;;;16.39
61977;BMP280;45905;50.570;10.428;2022-07-06T02:07:39;98487.19;;;16.34
61977;BMP280;45905;50.570;10.428;2022-07-06T02:10:08;98491.22;;;16.29
61977;BMP280;45905;50.570;10.428;2022-07-06T02:12:35;98486.66;;;16.24
61977;BMP280;45905;50.570;10.428;2022-07-06T02:15:03;98489.56;;;16.22
61977;BMP280;45905;50.570;10.428;2022-07-06T02:17:30;98488.94;;;16.20
61977;BMP280;45905;50.570;10.428;2022-07-06T02:19:57;98492.81;;;16.16
61977;BMP280;45905;50.570;10.428;2022-07-06T02:22:25;98497.41;;;16.06
61977;BMP280;45905;50.570;10.428;2022-07-06T02:24:52;98492.03;;;16.01
61977;BMP280;45905;50.570;10.428;2022-07-06T02:27:19;98490.44;;;16.00
61977;BMP280;45905;50.570;10.428;2022-07-06T02:29:47;98489.03;;;15.98
61977;BMP280;45905;50.570;10.428;2022-07-06T02:32:14;98496.19;;;15.94
61977;BMP280;45905;50.570;10.428;2022-07-06T02:34:42;98496.72;;;15.90
61977;BMP280;45905;50.570;10.428;2022-07-06T02:37:09;98499.00;;;15.85
61977;BMP280;45905;50.570;10.428;2022-07-06T02:39:37;98496.97;;;15.81
61977;BMP280;45905;50.570;10.428;2022-07-06T02:42:04;98504.00;;;15.79
61977;BMP280;45905;50.570;10.428;2022-07-06T02:44:32;98502.16;;;15.73
61977;BMP280;45905;50.570;10.428;2022-07-06T02:46:59;98497.38;;;15.70
61977;BMP280;45905;50.570;10.428;2022-07-06T02:49:27;98499.94;;;15.70
61977;BMP280;45905;50.570;10.428;2022-07-06T02:51:54;98507.78;;;15.68
61977;BMP280;45905;50.570;10.428;2022-07-06T02:54:22;98507.34;;;15.65
61977;BMP280;45905;50.570;10.428;2022-07-06T02:56:49;98499.03;;;15.63
61977;BMP280;45905;50.570;10.428;2022-07-06T02:59:20;98504.66;;;15.59
61977;BMP280;45905;50.570;10.428;2022-07-06T03:01:48;98500.88;;;15.55
61977;BMP280;45905;50.570;10.428;2022-07-06T03:04:16;98500.88;;;15.55
61977;BMP280;45905;50.570;10.428;2022-07-06T03:06:44;98509.81;;;15.51
61977;BMP280;45905;50.570;10.428;2022-07-06T03:09:12;98504.28;;;15.47
61977;BMP280;45905;50.570;10.428;2022-07-06T03:11:40;98509.56;;;15.46
61977;BMP280;45905;50.570;10.428;2022-07-06T03:14:08;98507.00;;;15.46
61977;BMP280;45905;50.570;10.428;2022-07-06T03:16:37;98513.88;;;15.46
61977;BMP280;45905;50.570;10.428;2022-07-06T03:19:05;98506.22;;;15.46
61977;BMP280;45905;50.570;10.428;2022-07-06T03:21:33;98512.28;;;15.45
61977;BMP280;45905;50.570;10.428;2022-07-06T03:24:01;98512.44;;;15.43
61977;BMP280;45905;50.570;10.428;2022-07-06T03:26:29;98509.63;;;15.38
61977;BMP280;45905;50.570;10.428;2022-07-06T03:28:57;98504.03;;;15.35
61977;BMP280;45905;50.570;10.428;2022-07-06T03:31:24;98509.16;;;15.35
61977;BMP280;45905;50.570;10.428;2022-07-06T03:33:52;98497.19;;;15.35
61977;BMP280;45905;50.570;10.428;2022-07-06T03:36:19;98497.97;;;15.36
61977;BMP280;45905;50.570;10.428;2022-07-06T03:38:47;98514.25;;;15.35
61977;BMP280;45905;50.570;10.428;2022-07-06T03:41:15;98508.72;;;15.31
61977;BMP280;45905;50.570;10.428;2022-07-06T03:43:43;98499.63;;;15.29
61977;BMP280;45905;50.570;10.428;2022-07-06T03:46:10;98508.88;;;15.30
61977;BMP280;45905;50.570;10.428;2022-07-06T03:48:38;98507.91;;;15.31
61977;BMP280;45905;50.570;10.428;2022-07-06T03:51:06;98516.19;;;15.33
61977;BMP280;45905;50.570;10.428;2022-07-06T03:53:34;98503.78;;;15.30
61977;BMP280;45905;50.570;10.428;2022-07-06T03:56:01;98504.75;;;15.29
61977;BMP280;45905;50.570;10.428;2022-07-06T03:58:48;98512.22;;;15.30
61977;BMP280;45905;50.570;10.428;2022-07-06T04:01:16;98514.94;;;15.29
61977;BMP280;45905;50.570;10.428;2022-07-06T04:03:43;98514.59;;;15.32
61977;BMP280;45905;50.570;10.428;2022-07-06T04:06:12;98522.09;;;15.33
61977;BMP280;45905;50.570;10.428;2022-07-06T04:08:39;98524.78;;;15.32
61977;BMP280;45905;50.570;10.428;2022-07-06T04:11:07;98529.41;;;15.36
61977;BMP280;45905;50.570;10.428;2022-07-06T04:13:35;98526.53;;;15.39
61977;BMP280;45905;50.570;10.428;2022-07-06T04:16:05;98526.00;;;15.44
61977;BMP280;45905;50.570;10.428;2022-07-06T04:18:33;98527.59;;;15.45
61977;BMP280;45905;50.570;10.428;2022-07-06T04:21:00;98526.16;;;15.42
61977;BMP280;45905;50.570;10.428;2022-07-06T04:23:31;98534.34;;;15.38
61977;BMP280;45905;50.570;10.428;2022-07-06T04:26:00;98530.53;;;15.34
61977;BMP280;45905;50.570;10.428;2022-07-06T04:28:30;98532.28;;;15.33
61977;BMP280;45905;50.570;10.428;2022-07-06T04:30:58;98528.34;;;15.31
61977;BMP280;45905;50.570;10.428;2022-07-06T04:33:25;98530.25;;;15.29
61977;BMP280;45905;50.570;10.428;2022-07-06T04:35:53;98530.25;;;15.29
61977;BMP280;45905;50.570;10.428;2022-07-06T04:38:25;98544.94;;;15.27
61977;BMP280;45905;50.570;10.428;2022-07-06T04:40:55;98542.72;;;15.24
61977;BMP280;45905;50.570;10.428;2022-07-06T04:43:23;98544.31;;;15.25
61977;BMP280;45905;50.570;10.428;2022-07-06T04:45:51;98541.44;;;15.28
61977;BMP280;45905;50.570;10.428;2022-07-06T04:48:18;98541.38;;;15.36
61977;BMP280;45905;50.570;10.428;2022-07-06T04:50:46;98541.84;;;15.39
61977;BMP280;45905;50.570;10.428;2022-07-06T04:53:19;98557.97;;;15.40
61977;BMP280;45905;50.570;10.428;2022-07-06T04:55:47;98547.75;;;15.40
61977;BMP280;45905;50.570;10.428;2022-07-06T04:58:14;98542.63;;;15.40
61977;BMP280;45905;50.570;10.428;2022-07-06T05:00:42;98549.94;;;15.43
61977;BMP280;45905;50.570;10.428;2022-07-06T05:03:09;98554.09;;;15.44
61977;BMP280;45905;50.570;10.428;2022-07-06T05:05:37;98546.75;;;15.41
61977;BMP280;45905;50.570;10.428;2022-07-06T05:08:04;98562.06;;;15.41
61977;BMP280;45905;50.570;10.428;2022-07-06T05:10:33;98571.84;;;15.37
61977;BMP280;45905;50.570;10.428;2022-07-06T05:13:03;98575.19;;;15.38
61977;BMP280;45905;50.570;10.428;2022-07-06T05:15:30;98562.28;;;15.39
61977;BMP280;45905;50.570;10.428;2022-07-06T05:17:58;98566.84;;;15.44
61977;BMP280;45905;50.570;10.428;2022-07-06T05:20:25;98569.41;;;15.44
61977;BMP280;45905;50.570;10.428;2022-07-06T05:22:52;98576.91;;;15.45
61977;BMP280;45905;50.570;10.428;2022-07-06T05:25:24;98575.94;;;15.46
61977;BMP280;45905;50.570;10.428;2022-07-06T05:27:52;98576.56;;;15.48
61977;BMP280;45905;50.570;10.428;2022-07-06T05:30:20;98579.72;;;15.50
61977;BMP280;45905;50.570;10.428;2022-07-06T05:32:48;98588.50;;;15.55
61977;BMP280;45905;50.570;10.428;2022-07-06T05:35:15;98581.78;;;15.54
61977;BMP280;45905;50.570;10.428;2022-07-06T05:38:05;98582.13;;;15.51
61977;BMP280;45905;50.570;10.428;2022-07-06T05:40:32;98580.19;;;15.53
61977;BMP280;45905;50.570;10.428;2022-07-06T05:42:59;98576.53;;;15.56
61977;BMP280;45905;50.570;10.428;2022-07-06T05:45:27;98573.59;;;15.59
61977;BMP280;45905;50.570;10.428;2022-07-06T05:47:56;98582.53;;;15.63
61977;BMP280;45905;50.570;10.428;2022-07-06T05:50:42;98584.56;;;15.67
61977;BMP280;45905;50.570;10.428;2022-07-06T05:53:10;98580.72;;;15.71
61977;BMP280;45905;50.570;10.428;2022-07-06T05:55:48;98577.03;;;15.73
61977;BMP280;45905;50.570;10.428;2022-07-06T05:58:16;98581.63;;;15.78
61977;BMP280;45905;50.570;10.428;2022-07-06T06:00:45;98581.28;;;15.81
61977;BMP280;45905;50.570;10.428;2022-07-06T06:03:17;98581.91;;;15.83
61977;BMP280;45905;50.570;10.428;2022-07-06T06:05:46;98581.53;;;15.85
61977;BMP280;45905;50.570;10.428;2022-07-06T06:08:16;98578.66;;;15.88
61977;BMP280;45905;50.570;10.428;2022-07-06T06:10:43;98585.81;;;15.93
61977;BMP280;45905;50.570;10.428;2022-07-06T06:13:14;98582.59;;;15.99
61977;BMP280;45905;50.570;10.428;2022-07-06T06:15:41;98581.91;;;16.04
61977;BMP280;45905;50.570;10.428;2022-07-06T06:18:08;98588.09;;;16.10
61977;BMP280;45905;50.570;10.428;2022-07-06T06:20:36;98590.06;;;16.22
61977;BMP280;45905;50.570;10.428;2022-07-06T06:23:04;98583.09;;;16.30
61977;BMP280;45905;50.570;10.428;2022-07-06T06:25:35;98592.28;;;16.39
61977;BMP280;45905;50.570;10.428;2022-07-06T06:28:06;98591.59;;;16.45
61977;BMP280;45905;50.570;10.428;2022-07-06T06:30:34;98595.22;;;16.50
61977;BMP280;45905;50.570;10.428;2022-07-06T06:33:12;98585.88;;;16.57
61977;BMP280;45905;50.570;10.428;2022-07-06T06:35:46;98589.22;;;16.58
61977;BMP280;45905;50.570;10.428;2022-07-06T06:38:14;98588.72;;;16.62
61977;BMP280;45905;50.570;10.428;2022-07-06T06:40:42;98585.94;;;16.63
61977;BMP280;45905;50.570;10.428;2022-07-06T06:43:10;98593.72;;;16.70
61977;BMP280;45905;50.570;10.428;2022-07-06T06:46:03;98600.34;;;16.79
61977;BMP280;45905;50.570;10.428;2022-07-06T06:48:30;98596.28;;;16.84
61977;BMP280;45905;50.570;10.428;2022-07-06T06:50:58;98593.81;;;16.90
61977;BMP280;45905;50.570;10.428;2022-07-06T06:53:26;98595.69;;;16.96
61977;BMP280;45905;50.570;10.428;2022-07-06T06:55:53;98590.81;;;17.01
61977;BMP280;45905;50.570;10.428;2022-07-06T06:58:20;98604.69;;;17.06
61977;BMP280;45905;50.570;10.428;2022-07-06T07:00:48;98596.63;;;17.09
61977;BMP280;45905;50.570;10.428;2022-07-06T07:03:15;98588.59;;;17.12
61977;BMP280;45905;50.570;10.428;2022-07-06T07:05:42;98600.06;;;17.16
61977;BMP280;45905;50.570;10.428;2022-07-06T07:08:09;98598.56;;;17.21
61977;BMP280;45905;50.570;10.428;2022-07-06T07:10:37;98602.16;;;17.27
61977;BMP280;45905;50.570;10.428;2022-07-06T07:13:04;98597.84;;;17.27
61977;BMP280;45905;50.570;10.428;2022-07-06T07:15:31;98592.72;;;17.27
61977;BMP280;45905;50.570;10.428;2022-07-06T07:17:59;98603.03;;;17.34
61977;BMP280;45905;50.570;10.428;2022-07-06T07:20:26;98605.50;;;17.41
61977;BMP280;45905;50.570;10.428;2022-07-06T07:22:57;98596.47;;;17.45
61977;BMP280;45905;50.570;10.428;2022-07-06T07:25:24;98598.91;;;17.53
61977;BMP280;45905;50.570;10.428;2022-07-06T07:27:51;98588.03;;;17.65
61977;BMP280;45905;50.570;10.428;2022-07-06T07:30:18;98589.09;;;17.77
61977;BMP280;45905;50.570;10.428;2022-07-06T07:32:46;98589.44;;;17.88
61977;BMP280;45905;50.570;10.428;2022-07-06T07:35:13;98597.00;;;17.96
61977;BMP280;45905;50.570;10.428;2022-07-06T07:37:41;98587.81;;;18.01
61977;BMP280;45905;50.570;10.428;2022-07-06T07:40:08;98594.72;;;18.01
61977;BMP280;45905;50.570;10.428;2022-07-06T07:42:36;98590.78;;;18.05
61977;BMP280;45905;50.570;10.428;2022-07-06T07:45:09;98595.19;;;18.11
61977;BMP280;45905;50.570;10.428;2022-07-06T07:47:36;98593.28;;;18.19
61977;BMP280;45905;50.570;10.428;2022-07-06T07:50:04;98598.09;;;18.28
61977;BMP280;45905;50.570;10.428;2022-07-06T07:52:32;98590.63;;;18.33
61977;BMP280;45905;50.570;10.428;2022-07-06T07:55:00;98589.69;;;18.40
61977;BMP280;45905;50.570;10.428;2022-07-06T07:57:47;98601.34;;;18.43
61977;BMP280;45905;50.570;10.428;2022-07-06T08:00:14;98593.88;;;18.48
61977;BMP280;45905;50.570;10.428;2022-07-06T08:02:42;98590.31;;;18.49
61977;BMP280;45905;50.570;10.428;2022-07-06T08:05:09;98595.09;;;18.52
61977;BMP280;45905;50.570;10.428;2022-07-06T08:07:44;98594.34;;;18.57
61977;BMP280;45905;50.570;10.428;2022-07-06T08:10:11;98583.13;;;18.65
61977;BMP280;45905;50.570;10.428;2022-07-06T08:12:38;98582.94;;;18.66
61977;BMP280;45905;50.570;10.428;2022-07-06T08:15:12;98591.53;;;18.73
61977;BMP280;45905;50.570;10.428;2022-07-06T08:17:39;98593.69;;;18.76
61977;BMP280;45905;50.570;10.428;2022-07-06T08:20:07;98592.72;;;18.77
61977;BMP280;45905;50.570;10.428;2022-07-06T08:22:38;98601.03;;;18.79
61977;BMP280;45905;50.570;10.428;2022-07-06T08:25:06;98605.00;;;18.81
61977;BMP280;45905;50.570;10.428;2022-07-06T08:27:34;98599.47;;;18.84
61977;BMP280;45905;50.570;10.428;2022-07-06T08:30:03;98598.47;;;18.85
61977;BMP280;45905;50.570;10.428;2022-07-06T08:32:31;98601.03;;;18.85
61977;BMP280;45905;50.570;10.428;2022-07-06T08:35:18;98606.03;;;18.93
61977;BMP280;45905;50.570;10.428;2022-07-06T08:37:46;98598.38;;;18.99
61977;BMP280;45905;50.570;10.428;2022-07-06T08:40:13;98589.91;;;19.05
61977;BMP280;45905;50.570;10.428;2022-07-06T08:42:42;98600.19;;;19.11
61977;BMP280;45905;50.570;10.428;2022-07-06T08:45:12;98593.31;;;19.18
61977;BMP280;45905;50.570;10.428;2022-07-06T08:47:41;98597.88;;;19.23
61977;BMP280;45905;50.570;10.428;2022-07-06T08:50:09;98594.50;;;19.22
61977;BMP280;45905;50.570;10.428;2022-07-06T08:52:38;98592.38;;;19.26
61977;BMP280;45905;50.570;10.428;2022-07-06T08:55:08;98595.13;;;19.24
61977;BMP280;45905;50.570;10.428;2022-07-06T08:57:35;98591.16;;;19.22
61977;BMP280;45905;50.570;10.428;2022-07-06T09:00:03;98595.13;;;19.24
61977;BMP280;45905;50.570;10.428;2022-07-06T09:02:30;98590.78;;;19.25
61977;BMP280;45905;50.570;10.428;2022-07-06T09:04:58;98585.25;;;19.28
61977;BMP280;45905;50.570;10.428;2022-07-06T09:07:29;98584.88;;;19.30
61977;BMP280;45905;50.570;10.428;2022-07-06T09:10:21;98586.66;;;19.36
61977;BMP280;45905;50.570;10.428;2022-07-06T09:12:49;98596.56;;;19.39
61977;BMP280;45905;50.570;10.428;2022-07-06T09:15:16;98594.78;;;19.40
61977;BMP280;45905;50.570;10.428;2022-07-06T09:17:44;98610.00;;;19.41
61977;BMP280;45905;50.570;10.428;2022-07-06T09:20:13;98596.38;;;19.47
61977;BMP280;45905;50.570;10.428;2022-07-06T09:22:41;98591.66;;;19.50
61977;BMP280;45905;50.570;10.428;2022-07-06T09:25:12;98588.47;;;19.55
61977;BMP280;45905;50.570;10.428;2022-07-06T09:27:43;98573.50;;;19.58
61977;BMP280;45905;50.570;10.428;2022-07-06T09:30:15;98586.56;;;19.63
61977;BMP280;45905;50.570;10.428;2022-07-06T09:32:47;98579.25;;;19.67
61977;BMP280;45905;50.570;10.428;2022-07-06T09:35:29;98580.44;;;19.70
61977;BMP280;45905;50.570;10.428;2022-07-06T09:38:13;98588.00;;;19.78
61977;BMP280;45905;50.570;10.428;2022-07-06T09:40:44;98591.34;;;19.85
61977;BMP280;45905;50.570;10.428;2022-07-06T09:43:22;98588.59;;;19.87
61977;BMP280;45905;50.570;10.428;2022-07-06T09:45:54;98593.31;;;19.89
61977;BMP280;45905;50.570;10.428;2022-07-06T09:48:25;98583.44;;;19.87
61977;BMP280;45905;50.570;10.428;2022-07-06T09:51:00;98592.94;;;19.86
61977;BMP280;45905;50.570;10.428;2022-07-06T09:53:30;98594.13;;;19.84
61977;BMP280;45905;50.570;10.428;2022-07-06T09:55:57;98590.75;;;19.83
61977;BMP280;45905;50.570;10.428;2022-07-06T09:58:28;98587.00;;;19.86
61977;BMP280;45905;50.570;10.428;2022-07-06T10:01:28;98580.88;;;19.93
61977;BMP280;45905;50.570;10.428;2022-07-06T10:03:57;98593.34;;;20.02
61977;BMP280;45905;50.570;10.428;2022-07-06T10:06:25;98590.19;;;20.13
61977;BMP280;45905;50.570;10.428;2022-07-06T10:08:57;98608.38;;;20.24
61977;BMP280;45905;50.570;10.428;2022-07-06T10:11:27;98600.69;;;20.30
61977;BMP280;45905;50.570;10.428;2022-07-06T10:13:57;98600.88;;;20.29
61977;BMP280;45905;50.570;10.428;2022-07-06T10:16:25;98597.88;;;20.32
61977;BMP280;45905;50.570;10.428;2022-07-06T10:18:53;98587.03;;;20.30
61977;BMP280;45905;50.570;10.428;2022-07-06T10:21:22;98594.75;;;20.30
61977;BMP280;45905;50.570;10.428;2022-07-06T10:23:51;98584.03;;;20.26
61977;BMP280;45905;50.570;10.428;2022-07-06T10:26:19;98582.66;;;20.30
61977;BMP280;45905;50.570;10.428;2022-07-06T10:28:49;98587.19;;;20.35
61977;BMP280;45905;50.570;10.428;2022-07-06T10:31:19;98581.50;;;20.39
61977;BMP280;45905;50.570;10.428;2022-07-06T10:33:48;98570.78;;;20.48
61977;BMP280;45905;50.570;10.428;2022-07-06T10:36:15;98564.44;;;20.51
61977;BMP280;45905;50.570;10.428;2022-07-06T10:38:50;98571.78;;;20.47
61977;BMP280;45905;50.570;10.428;2022-07-06T10:41:30;98580.88;;;20.44
61977;BMP280;45905;50.570;10.428;2022-07-06T10:43:58;98578.13;;;20.45
61977;BMP280;45905;50.570;10.428;2022-07-06T10:46:40;98580.50;;;20.46
61977;BMP280;45905;50.570;10.428;2022-07-06T10:49:15;98579.50;;;20.47
61977;BMP280;45905;50.570;10.428;2022-07-06T10:52:05;98577.31;;;20.51
61977;BMP280;45905;50.570;10.428;2022-07-06T10:54:39;98584.25;;;20.50
61977;BMP280;45905;50.570;10.428;2022-07-06T10:57:13;98581.44;;;20.58
61977;BMP280;45905;50.570;10.428;2022-07-06T11:00:05;98575.91;;;20.61
61977;BMP280;45905;50.570;10.428;2022-07-06T11:02:39;98570.94;;;20.66
61977;BMP280;45905;50.570;10.428;2022-07-06T11:05:42;98576.50;;;20.63
61977;BMP280;45905;50.570;10.428;2022-07-06T11:08:59;98573.72;;;20.64
61977;BMP280;45905;50.570;10.428;2022-07-06T11:11:40;98565.78;;;20.72
61977;BMP280;45905;50.570;10.428;2022-07-06T11:14:20;98574.28;;;20.79
61977;BMP280;45905;50.570;10.428;2022-07-06T11:19:20;98573.47;;;20.85
61977;BMP280;45905;50.570;10.428;2022-07-06T11:21:51;98559.56;;;20.99
61977;BMP280;45905;50.570;10.428;2022-07-06T11:24:28;98563.50;;;21.14
61977;BMP280;45905;50.570;10.428;2022-07-06T11:26:58;98565.25;;;21.20
61977;BMP280;45905;50.570;10.428;2022-07-06T11:29:28;98556.72;;;21.25
61977;BMP280;45905;50.570;10.428;2022-07-06T11:31:58;98567.00;;;21.25
61977;BMP280;45905;50.570;10.428;2022-07-06T11:34:32;98552.31;;;21.32
61977;BMP280;45905;50.570;10.428;2022-07-06T11:37:15;98556.81;;;21.37
61977;BMP280;45905;50.570;10.428;2022-07-06T11:39:45;98555.22;;;21.42
61977;BMP280;45905;50.570;10.428;2022-07-06T11:42:15;98550.56;;;21.57
61977;BMP280;45905;50.570;10.428;2022-07-06T11:44:45;98547.06;;;21.75
61977;BMP280;45905;50.570;10.428;2022-07-06T11:47:13;98549.38;;;21.89
61977;BMP280;45905;50.570;10.428;2022-07-06T11:49:50;98543.97;;;21.97
61977;BMP280;45905;50.570;10.428;2022-07-06T11:52:17;98549.22;;;22.08
61977;BMP280;45905;50.570;10.428;2022-07-06T11:54:44;98531.88;;;22.15
61977;BMP280;45905;50.570;10.428;2022-07-06T11:57:12;98535.38;;;22.27
61977;BMP280;45905;50.570;10.428;2022-07-06T11:59:41;98544.09;;;22.26
61977;BMP280;45905;50.570;10.428;2022-07-06T12:02:15;98530.88;;;22.16
61977;BMP280;45905;50.570;10.428;2022-07-06T12:04:45;98532.53;;;22.11
61977;BMP280;45905;50.570;10.428;2022-07-06T12:07:17;98530.94;;;22.10
61977;BMP280;45905;50.570;10.428;2022-07-06T12:09:47;98537.50;;;22.12
61977;BMP280;45905;50.570;10.428;2022-07-06T12:12:15;98528.75;;;22.13
61977;BMP280;45905;50.570;10.428;2022-07-06T12:14:44;98523.16;;;22.16
61977;BMP280;45905;50.570;10.428;2022-07-06T12:17:14;98518.28;;;22.26
61977;BMP280;45905;50.570;10.428;2022-07-06T12:19:43;98524.56;;;22.36
61977;BMP280;45905;50.570;10.428;2022-07-06T12:22:11;98515.19;;;22.59
61977;BMP280;45905;50.570;10.428;2022-07-06T12:24:43;98510.03;;;22.76
61977;BMP280;45905;50.570;10.428;2022-07-06T12:27:19;98512.56;;;22.83
61977;BMP280;45905;50.570;10.428;2022-07-06T12:29:48;98502.00;;;22.84
61977;BMP280;45905;50.570;10.428;2022-07-06T12:32:22;98507.00;;;22.97
61977;BMP280;45905;50.570;10.428;2022-07-06T12:35:10;98501.53;;;23.05
61977;BMP280;45905;50.570;10.428;2022-07-06T12:37:54;98501.44;;;23.11
61977;BMP280;45905;50.570;10.428;2022-07-06T12:40:26;98501.28;;;23.24
61977;BMP280;45905;50.570;10.428;2022-07-06T12:42:57;98499.91;;;23.21
61977;BMP280;45905;50.570;10.428;2022-07-06T12:45:29;98512.84;;;23.21
61977;BMP280;45905;50.570;10.428;2022-07-06T12:48:05;98497.69;;;23.25
61977;BMP280;45905;50.570;10.428;2022-07-06T12:50:37;98492.91;;;23.28
61977;BMP280;45905;50.570;10.428;2022-07-06T12:53:23;98503.25;;;23.28
61977;BMP280;45905;50.570;10.428;2022-07-06T12:56:11;98488.44;;;23.35
61977;BMP280;45905;50.570;10.428;2022-07-06T12:58:39;98500.28;;;23.53
61977;BMP280;45905;50.570;10.428;2022-07-06T13:01:06;98495.03;;;23.71
61977;BMP280;45905;50.570;10.428;2022-07-06T13:03:41;98493.94;;;23.90
61977;BMP280;45905;50.570;10.428;2022-07-06T13:06:08;98487.00;;;24.01
61977;BMP280;45905;50.570;10.428;2022-07-06T13:08:35;98489.47;;;24.19
61977;BMP280;45905;50.570;10.428;2022-07-06T13:11:02;98493.50;;;24.26
61977;BMP280;45905;50.570;10.428;2022-07-06T13:13:31;98492.59;;;24.43
61977;BMP280;45905;50.570;10.428;2022-07-06T13:15:58;98492.94;;;24.58
61977;BMP280;45905;50.570;10.428;2022-07-06T13:18:25;98500.72;;;24.58
61977;BMP280;45905;50.570;10.428;2022-07-06T13:20:52;98495.78;;;24.68
61977;BMP280;45905;50.570;10.428;2022-07-06T13:23:19;98486.38;;;24.78
61977;BMP280;45905;50.570;10.428;2022-07-06T13:25:47;98497.63;;;24.83
61977;BMP280;45905;50.570;10.428;2022-07-06T13:28:14;98495.84;;;24.72
61977;BMP280;45905;50.570;10.428;2022-07-06T13:30:41;98483.25;;;24.76
61977;BMP280;45905;50.570;10.428;2022-07-06T13:33:09;98488.84;;;24.84
61977;BMP280;45905;50.570;10.428;2022-07-06T13:35:36;98505.63;;;24.93
61977;BMP280;45905;50.570;10.428;2022-07-06T13:38:03;98490.66;;;24.84
61977;BMP280;45905;50.570;10.428;2022-07-06T13:40:30;98486.28;;;24.62
61977;BMP280;45905;50.570;10.428;2022-07-06T13:42:57;98485.75;;;24.37
61977;BMP280;45905;50.570;10.428;2022-07-06T13:45:25;98474.25;;;24.45
61977;BMP280;45905;50.570;10.428;2022-07-06T13:47:52;98477.06;;;24.66
61977;BMP280;45905;50.570;10.428;2022-07-06T13:50:19;98484.91;;;24.70
61977;BMP280;45905;50.570;10.428;2022-07-06T13:52:46;98477.84;;;24.66
61977;BMP280;45905;50.570;10.428;2022-07-06T13:55:14;98471.09;;;24.65
61977;BMP280;45905;50.570;10.428;2022-07-06T13:57:41;98475.25;;;24.66
61977;BMP280;45905;50.570;10.428;2022-07-06T14:00:10;98480.31;;;24.72
61977;BMP280;45905;50.570;10.428;2022-07-06T14:02:37;98480.72;;;24.81
61977;BMP280;45905;50.570;10.428;2022-07-06T14:05:05;98473.72;;;24.92
61977;BMP280;45905;50.570;10.428;2022-07-06T14:07:32;98478.53;;;25.00
61977;BMP280;45905;50.570;10.428;2022-07-06T14:10:00;98489.78;;;25.06
61977;BMP280;45905;50.570;10.428;2022-07-06T14:12:27;98466.41;;;25.17
61977;BMP280;45905;50.570;10.428;2022-07-06T14:14:54;98462.28;;;25.32